Time;durP1;ratioP1;P1;durP2;ratioP2;P2;SDS_P1;SDS_P2;PMS_P1;PMS_P2;Temp;Humidity;BMP_temperature;BMP_pressure;BME280_temperature;BME280_humidity;BME280_pressure;Samples;Min_cycle;Max_cycle;Signal;HPM_P1;HPM_P2
2023/07/10 00:02:01;;;;;;;;;;;19.10;99.90;;;;;;5153773;27;19911;-37
2023/07/10 00:04:27;;;;;;;;;;;19.00;99.90;;;;;;5154564;27;20388;-37
2023/07/10 00:06:52;;;;;;;;;;;19.00;99.90;;;;;;5154498;27;19959;-37
2023/07/10 00:09:18;;;;;;;;;;;19.00;99.90;;;;;;5133485;27;19912;-38
2023/07/10 00:11:44;;;;;;;;;;;19.10;99.90;;;;;;5133658;27;19915;-37
2023/07/10 00:14:20;;;;;;;;;;;19.20;99.90;;;;;;5133915;27;19911;-37
2023/07/10 00:16:46;;;;;;;;;;;19.20;99.90;;;;;;5133032;28;19908;-37
2023/07/10 00:19:12;;;;;;;;;;;19.20;99.90;;;;;;5133791;28;19968;-37
2023/07/10 00:21:37;;;;;;;;;;;19.20;99.90;;;;;;5134151;27;19938;-37
2023/07/10 00:24:03;;;;;;;;;;;19.20;99.90;;;;;;5137108;27;19915;-37
2023/07/10 00:26:29;;;;;;;;;;;19.10;99.90;;;;;;5137944;27;20012;-37
2023/07/10 00:28:56;;;;;;;;;;;19.10;99.90;;;;;;5138010;27;20025;-37
2023/07/10 00:31:24;;;;;;;;;;;19.00;99.90;;;;;;5137027;27;19915;-37
2023/07/10 00:33:50;;;;;;;;;;;19.00;99.90;;;;;;5137956;27;19908;-37
2023/07/10 00:36:19;;;;;;;;;;;18.90;99.90;;;;;;5137457;27;19912;-37
2023/07/10 00:38:44;;;;;;;;;;;18.90;99.90;;;;;;5136709;27;19998;-37
2023/07/10 00:41:10;;;;;;;;;;;18.90;99.90;;;;;;5137715;27;20018;-37
2023/07/10 00:43:38;;;;;;;;;;;18.90;99.90;;;;;;5137565;27;20382;-37
2023/07/10 00:46:29;;;;;;;;;;;18.90;99.90;;;;;;5136958;27;20293;-37
2023/07/10 00:49:03;;;;;;;;;;;18.90;99.90;;;;;;5133451;27;19911;-37
2023/07/10 00:51:34;;;;;;;;;;;18.90;99.90;;;;;;5136791;27;19920;-37
2023/07/10 00:54:01;;;;;;;;;;;18.90;99.90;;;;;;5137716;27;19914;-37
2023/07/10 00:56:30;;;;;;;;;;;18.90;99.90;;;;;;5137335;27;19964;-38
2023/07/10 00:58:56;;;;;;;;;;;19.00;99.90;;;;;;5136654;27;19907;-37
2023/07/10 01:01:24;;;;;;;;;;;19.00;99.90;;;;;;5137243;27;19966;-37
2023/07/10 01:03:51;;;;;;;;;;;18.90;99.90;;;;;;5137158;27;20010;-38
2023/07/10 01:06:19;;;;;;;;;;;19.00;99.90;;;;;;5136281;27;20319;-37
2023/07/10 01:08:47;;;;;;;;;;;19.00;99.90;;;;;;5137280;27;20021;-37
2023/07/10 01:11:13;;;;;;;;;;;19.00;99.90;;;;;;5137311;27;19952;-37
2023/07/10 01:13:41;;;;;;;;;;;19.10;99.90;;;;;;5136146;27;19907;-37
2023/07/10 01:16:07;;;;;;;;;;;19.10;99.90;;;;;;5136972;27;19943;-37
2023/07/10 01:18:33;;;;;;;;;;;19.00;99.90;;;;;;5136905;27;20011;-37
2023/07/10 01:21:01;;;;;;;;;;;19.10;99.90;;;;;;5136166;27;19907;-38
2023/07/10 01:23:27;;;;;;;;;;;19.10;99.90;;;;;;5136725;27;19915;-37
2023/07/10 01:25:55;;;;;;;;;;;19.00;99.90;;;;;;5136681;27;20006;-37
2023/07/10 01:28:21;;;;;;;;;;;19.00;99.90;;;;;;5136955;27;20354;-38
2023/07/10 01:30:48;;;;;;;;;;;19.10;99.90;;;;;;5136635;27;19929;-37
2023/07/10 01:33:17;;;;;;;;;;;19.10;99.90;;;;;;5136617;27;20425;-37
2023/07/10 01:35:43;;;;;;;;;;;19.10;99.90;;;;;;5135916;27;19908;-37
2023/07/10 01:38:13;;;;;;;;;;;19.10;99.90;;;;;;5136563;27;19911;-37
2023/07/10 01:40:40;;;;;;;;;;;19.10;99.90;;;;;;5135482;27;19931;-37
2023/07/10 01:43:09;;;;;;;;;;;19.10;99.90;;;;;;5136505;27;19916;-38
2023/07/10 01:45:41;;;;;;;;;;;19.10;99.90;;;;;;5136416;27;20331;-38
2023/07/10 01:48:06;;;;;;;;;;;19.20;99.90;;;;;;5135716;27;19930;-37
2023/07/10 01:50:32;;;;;;;;;;;19.20;99.90;;;;;;5136270;27;20366;-38
2023/07/10 01:52:58;;;;;;;;;;;19.20;99.90;;;;;;5136310;27;19908;-37
2023/07/10 01:55:24;;;;;;;;;;;19.20;99.90;;;;;;5135624;27;19908;-38
2023/07/10 01:57:50;;;;;;;;;;;19.30;99.90;;;;;;5139557;27;19911;-38
2023/07/10 02:00:15;;;;;;;;;;;19.30;99.90;;;;;;5156465;27;19918;-37
2023/07/10 02:02:41;;;;;;;;;;;19.20;99.90;;;;;;5155912;27;19922;-38
2023/07/10 02:05:07;;;;;;;;;;;19.20;99.90;;;;;;5156901;27;19907;-38
2023/07/10 02:07:32;;;;;;;;;;;19.20;99.90;;;;;;5156712;27;19973;-37
2023/07/10 02:09:58;;;;;;;;;;;19.10;99.90;;;;;;5137485;27;20424;-37
2023/07/10 02:12:23;;;;;;;;;;;19.10;99.90;;;;;;5156534;27;19952;-37
2023/07/10 02:14:48;;;;;;;;;;;19.10;99.90;;;;;;5156635;27;19907;-38
2023/07/10 02:17:14;;;;;;;;;;;19.10;99.90;;;;;;5155838;27;20006;-37
2023/07/10 02:19:39;;;;;;;;;;;19.20;99.90;;;;;;5156460;27;20258;-37
2023/07/10 02:22:05;;;;;;;;;;;19.20;99.90;;;;;;5156374;27;19915;-37
2023/07/10 02:24:30;;;;;;;;;;;19.20;99.90;;;;;;5155657;27;19915;-37
2023/07/10 02:26:56;;;;;;;;;;;19.20;99.90;;;;;;5156353;27;19907;-37
2023/07/10 02:29:21;;;;;;;;;;;19.20;99.90;;;;;;5139456;27;19921;-37
2023/07/10 02:31:49;;;;;;;;;;;19.10;99.90;;;;;;5134840;27;19907;-37
2023/07/10 02:34:15;;;;;;;;;;;19.10;99.90;;;;;;5135502;27;20397;-38
2023/07/10 02:36:41;;;;;;;;;;;19.10;99.90;;;;;;5134636;27;19919;-37
2023/07/10 02:39:06;;;;;;;;;;;19.10;99.90;;;;;;5135180;27;19926;-38
2023/07/10 02:41:31;;;;;;;;;;;19.00;99.90;;;;;;5135395;27;20235;-38
2023/07/10 02:43:57;;;;;;;;;;;19.00;99.90;;;;;;5128253;27;20038;-37
2023/07/10 02:46:22;;;;;;;;;;;19.00;99.90;;;;;;5104850;28;19908;-38
2023/07/10 02:48:48;;;;;;;;;;;19.10;99.90;;;;;;5114652;28;19985;-37
2023/07/10 02:51:14;;;;;;;;;;;19.00;99.90;;;;;;5113948;28;19914;-37
2023/07/10 02:53:39;;;;;;;;;;;19.10;99.90;;;;;;5114526;28;19919;-37
2023/07/10 02:56:05;;;;;;;;;;;19.10;99.90;;;;;;5114512;28;19911;-37
2023/07/10 02:58:30;;;;;;;;;;;19.10;99.90;;;;;;5123006;27;19911;-37
2023/07/10 03:00:59;;;;;;;;;;;19.10;99.90;;;;;;5135134;27;20353;-37
2023/07/10 03:03:26;;;;;;;;;;;19.10;99.90;;;;;;5134810;27;19919;-37
2023/07/10 03:05:52;;;;;;;;;;;19.10;99.90;;;;;;5134253;27;19911;-37
2023/07/10 03:08:17;;;;;;;;;;;19.10;99.90;;;;;;5134766;27;19907;-37
2023/07/10 03:10:43;;;;;;;;;;;19.10;99.90;;;;;;5134727;27;20338;-37
2023/07/10 03:13:08;;;;;;;;;;;19.10;99.90;;;;;;5134003;27;19907;-37
2023/07/10 03:15:34;;;;;;;;;;;19.00;99.90;;;;;;5134668;27;19986;-37
2023/07/10 03:17:59;;;;;;;;;;;18.90;99.90;;;;;;5134755;27;19907;-38
2023/07/10 03:20:25;;;;;;;;;;;18.90;99.90;;;;;;5133781;27;20419;-37
2023/07/10 03:22:51;;;;;;;;;;;18.90;99.90;;;;;;5134526;27;19916;-37
2023/07/10 03:25:16;;;;;;;;;;;18.90;99.90;;;;;;5134426;27;19908;-38
2023/07/10 03:27:42;;;;;;;;;;;18.90;99.90;;;;;;5135193;27;19907;-38
2023/07/10 03:30:07;;;;;;;;;;;18.90;99.90;;;;;;5155091;27;19959;-37
2023/07/10 03:32:33;;;;;;;;;;;18.80;99.90;;;;;;5155059;27;19990;-37
2023/07/10 03:34:58;;;;;;;;;;;18.80;99.90;;;;;;5154267;27;19907;-37
2023/07/10 03:37:24;;;;;;;;;;;18.80;99.90;;;;;;5154344;27;19911;-37
2023/07/10 03:39:50;;;;;;;;;;;18.80;99.90;;;;;;5154703;27;19997;-38
2023/07/10 03:42:15;;;;;;;;;;;18.80;99.90;;;;;;5154047;27;20006;-37
2023/07/10 03:44:41;;;;;;;;;;;18.70;99.90;;;;;;5154863;27;20272;-37
2023/07/10 03:47:06;;;;;;;;;;;18.70;99.90;;;;;;5154135;27;19908;-38
2023/07/10 03:49:32;;;;;;;;;;;18.70;99.90;;;;;;5154792;27;19907;-37
2023/07/10 03:51:58;;;;;;;;;;;18.70;99.90;;;;;;5154918;27;20001;-37
2023/07/10 03:54:24;;;;;;;;;;;18.70;99.90;;;;;;5153826;27;19915;-37
2023/07/10 03:56:49;;;;;;;;;;;18.60;99.90;;;;;;5153862;27;19911;-38
2023/07/10 03:59:17;;;;;;;;;;;18.60;99.90;;;;;;5154339;27;19976;-37
2023/07/10 04:01:43;;;;;;;;;;;18.60;99.90;;;;;;5153813;27;19951;-37
2023/07/10 04:04:09;;;;;;;;;;;18.60;99.90;;;;;;5154616;27;20005;-38
2023/07/10 04:06:34;;;;;;;;;;;18.60;99.90;;;;;;5154540;27;19916;-38
2023/07/10 04:09:00;;;;;;;;;;;18.50;99.90;;;;;;5153885;27;19959;-38
2023/07/10 04:11:26;;;;;;;;;;;18.50;99.90;;;;;;5154511;27;20373;-38
2023/07/10 04:13:52;;;;;;;;;;;18.50;99.90;;;;;;5154575;27;20315;-38
2023/07/10 04:16:19;;;;;;;;;;;18.50;99.90;;;;;;5153823;27;19914;-38
2023/07/10 04:18:45;;;;;;;;;;;18.50;99.90;;;;;;5154582;27;19907;-38
2023/07/10 04:21:13;;;;;;;;;;;18.50;99.90;;;;;;5154420;27;19918;-38
2023/07/10 04:23:39;;;;;;;;;;;18.60;99.90;;;;;;5153408;27;19915;-37
2023/07/10 04:26:05;;;;;;;;;;;18.70;99.90;;;;;;5154562;27;20261;-37
2023/07/10 04:28:31;;;;;;;;;;;18.70;99.90;;;;;;5152395;27;19922;-37
2023/07/10 04:30:56;;;;;;;;;;;18.70;99.90;;;;;;5153030;27;19911;-38
2023/07/10 04:33:22;;;;;;;;;;;18.70;99.90;;;;;;5154282;27;19968;-38
2023/07/10 04:35:54;;;;;;;;;;;18.70;99.90;;;;;;5154324;27;19907;-37
2023/07/10 04:38:21;;;;;;;;;;;18.60;99.90;;;;;;5153340;27;19914;-37
2023/07/10 04:40:54;;;;;;;;;;;18.60;99.90;;;;;;5154119;27;19927;-38
2023/07/10 04:43:20;;;;;;;;;;;18.60;99.90;;;;;;5120490;27;19920;-37
2023/07/10 04:45:46;;;;;;;;;;;18.60;99.90;;;;;;5123228;28;19908;-38
2023/07/10 04:48:11;;;;;;;;;;;18.60;99.90;;;;;;5113017;28;19961;-38
2023/07/10 04:50:37;;;;;;;;;;;18.60;99.90;;;;;;5112072;28;19912;-38
2023/07/10 04:53:02;;;;;;;;;;;18.60;99.90;;;;;;5112835;28;20000;-38
2023/07/10 04:55:28;;;;;;;;;;;18.60;99.90;;;;;;5112768;28;20385;-38
2023/07/10 04:57:53;;;;;;;;;;;18.60;99.90;;;;;;5115910;27;19915;-37
2023/07/10 05:00:19;;;;;;;;;;;18.60;99.90;;;;;;5133295;27;19919;-38
2023/07/10 05:02:44;;;;;;;;;;;18.70;99.90;;;;;;5133244;28;20336;-37
2023/07/10 05:05:10;;;;;;;;;;;18.70;99.90;;;;;;5132527;28;19912;-37
2023/07/10 05:07:35;;;;;;;;;;;18.60;99.90;;;;;;5133587;27;19919;-38
2023/07/10 05:10:01;;;;;;;;;;;18.70;99.90;;;;;;5137254;27;19958;-37
2023/07/10 05:12:27;;;;;;;;;;;18.60;99.90;;;;;;5135328;27;19929;-38
2023/07/10 05:14:52;;;;;;;;;;;18.60;99.90;;;;;;5136567;27;19912;-38
2023/07/10 05:17:18;;;;;;;;;;;18.60;99.90;;;;;;5117929;27;19915;-38
2023/07/10 05:19:43;;;;;;;;;;;18.60;99.90;;;;;;5135544;27;19971;-38
2023/07/10 05:22:09;;;;;;;;;;;18.60;99.90;;;;;;5136110;27;19908;-38
2023/07/10 05:24:34;;;;;;;;;;;18.60;99.90;;;;;;5131807;27;20524;-38
2023/07/10 05:27:00;;;;;;;;;;;18.60;99.90;;;;;;5135366;27;19934;-38
2023/07/10 05:29:25;;;;;;;;;;;18.50;99.90;;;;;;5134016;27;19958;-38
2023/07/10 05:31:51;;;;;;;;;;;18.50;99.90;;;;;;5132819;27;19927;-37
2023/07/10 05:34:18;;;;;;;;;;;18.50;99.90;;;;;;5135294;27;19950;-38
2023/07/10 05:36:44;;;;;;;;;;;18.50;99.90;;;;;;5135566;27;19915;-38
2023/07/10 05:39:09;;;;;;;;;;;18.50;99.90;;;;;;5132707;27;19919;-38
2023/07/10 05:41:36;;;;;;;;;;;18.60;99.90;;;;;;5135141;27;19915;-38
2023/07/10 05:44:02;;;;;;;;;;;18.60;99.90;;;;;;5135917;27;19919;-38
2023/07/10 05:46:27;;;;;;;;;;;18.60;99.90;;;;;;5136454;27;20380;-38
2023/07/10 05:48:53;;;;;;;;;;;18.70;99.90;;;;;;5135644;27;19908;-38
2023/07/10 05:51:18;;;;;;;;;;;18.70;99.90;;;;;;5138273;27;19911;-38
2023/07/10 05:53:44;;;;;;;;;;;18.70;99.90;;;;;;5135250;27;20319;-38
2023/07/10 05:56:09;;;;;;;;;;;18.80;99.90;;;;;;5136356;27;19908;-37
2023/07/10 05:58:38;;;;;;;;;;;18.80;99.90;;;;;;5136200;27;20324;-38
2023/07/10 06:01:04;;;;;;;;;;;18.80;99.90;;;;;;5135351;27;19954;-38
2023/07/10 06:03:31;;;;;;;;;;;18.80;99.90;;;;;;5135963;27;19962;-38
2023/07/10 06:06:01;;;;;;;;;;;18.80;99.90;;;;;;5136022;27;19908;-38
2023/07/10 06:08:27;;;;;;;;;;;18.80;99.90;;;;;;5135156;27;19907;-38
2023/07/10 06:10:53;;;;;;;;;;;18.80;99.90;;;;;;5136135;27;19912;-38
2023/07/10 06:13:18;;;;;;;;;;;18.80;99.90;;;;;;5135900;27;19907;-38
2023/07/10 06:15:48;;;;;;;;;;;18.80;99.90;;;;;;5130797;27;20538;-38
2023/07/10 06:18:14;;;;;;;;;;;18.90;99.90;;;;;;5127473;27;19918;-39
2023/07/10 06:20:40;;;;;;;;;;;18.90;99.90;;;;;;5117891;27;19919;-38
2023/07/10 06:23:06;;;;;;;;;;;18.90;99.90;;;;;;5154519;27;19919;-38
2023/07/10 06:25:31;;;;;;;;;;;18.90;99.90;;;;;;5156532;27;19914;-38
2023/07/10 06:27:57;;;;;;;;;;;18.90;99.90;;;;;;5156343;27;20380;-38
2023/07/10 06:30:22;;;;;;;;;;;18.90;99.90;;;;;;5155424;27;19907;-38
2023/07/10 06:32:48;;;;;;;;;;;18.90;99.90;;;;;;5141017;27;19950;-38
2023/07/10 06:35:14;;;;;;;;;;;19.00;99.90;;;;;;5135809;27;19911;-38
2023/07/10 06:37:40;;;;;;;;;;;19.00;99.90;;;;;;5145986;27;20026;-38
2023/07/10 06:40:15;;;;;;;;;;;19.00;99.90;;;;;;5146630;27;19923;-37
2023/07/10 06:42:41;;;;;;;;;;;19.00;99.90;;;;;;5148757;27;19947;-38
2023/07/10 06:45:07;;;;;;;;;;;19.00;99.90;;;;;;5135644;27;19929;-37
2023/07/10 06:47:37;;;;;;;;;;;19.10;99.90;;;;;;5138721;27;19908;-38
2023/07/10 06:50:03;;;;;;;;;;;19.10;99.90;;;;;;5134591;27;19907;-38
2023/07/10 06:52:29;;;;;;;;;;;19.10;99.90;;;;;;5134956;27;19914;-38
2023/07/10 06:54:54;;;;;;;;;;;19.10;99.90;;;;;;5135077;27;19922;-38
2023/07/10 06:57:20;;;;;;;;;;;19.10;99.90;;;;;;5134223;27;19950;-38
2023/07/10 06:59:45;;;;;;;;;;;19.10;99.90;;;;;;5135015;27;19968;-38
2023/07/10 07:02:13;;;;;;;;;;;19.10;99.90;;;;;;5132168;27;19965;-38
2023/07/10 07:04:40;;;;;;;;;;;19.10;99.90;;;;;;5130161;27;19919;-38
2023/07/10 07:07:06;;;;;;;;;;;19.10;99.90;;;;;;5135398;27;19923;-38
2023/07/10 07:09:31;;;;;;;;;;;19.10;99.90;;;;;;5134230;27;19911;-38
2023/07/10 07:11:58;;;;;;;;;;;19.00;99.90;;;;;;5133127;27;20369;-38
2023/07/10 07:14:24;;;;;;;;;;;19.00;99.90;;;;;;5133927;27;19930;-38
2023/07/10 07:16:50;;;;;;;;;;;19.00;99.90;;;;;;5135054;27;20440;-38
2023/07/10 07:19:15;;;;;;;;;;;18.90;99.90;;;;;;5133039;27;19911;-38
2023/07/10 07:21:41;;;;;;;;;;;18.90;99.90;;;;;;5130588;27;19911;-38
2023/07/10 07:24:06;;;;;;;;;;;19.00;99.90;;;;;;5132316;27;19923;-38
2023/07/10 07:26:32;;;;;;;;;;;19.10;99.90;;;;;;5132139;27;19907;-38
2023/07/10 07:28:57;;;;;;;;;;;19.10;99.90;;;;;;5133728;27;19933;-38
2023/07/10 07:31:23;;;;;;;;;;;19.30;99.90;;;;;;5131971;27;20353;-38
2023/07/10 07:33:49;;;;;;;;;;;19.30;99.90;;;;;;5132560;27;19907;-38
2023/07/10 07:36:14;;;;;;;;;;;19.40;99.90;;;;;;5129965;27;19916;-38
2023/07/10 07:38:40;;;;;;;;;;;19.40;99.90;;;;;;5131535;27;19918;-37
2023/07/10 07:41:07;;;;;;;;;;;19.50;99.90;;;;;;5125458;27;19923;-38
2023/07/10 07:43:32;;;;;;;;;;;19.50;99.90;;;;;;5128845;27;20010;-38
2023/07/10 07:45:58;;;;;;;;;;;19.50;99.90;;;;;;5133882;27;20034;-37
2023/07/10 07:48:24;;;;;;;;;;;19.60;99.90;;;;;;5135799;27;19912;-38
2023/07/10 07:51:00;;;;;;;;;;;19.60;99.90;;;;;;5132202;27;19911;-38
2023/07/10 07:53:26;;;;;;;;;;;19.70;99.90;;;;;;5132142;27;19919;-38
2023/07/10 07:55:52;;;;;;;;;;;19.80;99.90;;;;;;5133438;27;19911;-38
2023/07/10 07:58:17;;;;;;;;;;;19.80;99.90;;;;;;5129166;27;19956;-38
2023/07/10 08:00:43;;;;;;;;;;;19.90;99.90;;;;;;5125735;27;19931;-38
2023/07/10 08:03:09;;;;;;;;;;;20.00;99.90;;;;;;5125391;27;20332;-38
2023/07/10 08:05:35;;;;;;;;;;;20.10;99.90;;;;;;5131067;27;19907;-37
2023/07/10 08:08:00;;;;;;;;;;;20.20;99.90;;;;;;5131325;27;19908;-38
2023/07/10 08:10:26;;;;;;;;;;;20.30;99.90;;;;;;5133201;27;19944;-38
2023/07/10 08:12:52;;;;;;;;;;;20.40;99.90;;;;;;5133061;27;19907;-38
2023/07/10 08:15:18;;;;;;;;;;;20.50;99.90;;;;;;5125011;27;19916;-38
2023/07/10 08:17:43;;;;;;;;;;;20.50;99.90;;;;;;5125402;27;19963;-38
2023/07/10 08:20:09;;;;;;;;;;;20.60;99.90;;;;;;5127780;28;19919;-38
2023/07/10 08:22:34;;;;;;;;;;;20.70;99.90;;;;;;5130666;28;19928;-38
2023/07/10 08:25:01;;;;;;;;;;;20.80;99.90;;;;;;5130248;27;20210;-38
2023/07/10 08:27:27;;;;;;;;;;;20.80;99.90;;;;;;5127802;27;20310;-38
2023/07/10 08:29:52;;;;;;;;;;;20.90;99.90;;;;;;5128147;27;19919;-38
2023/07/10 08:32:18;;;;;;;;;;;21.00;99.90;;;;;;5125437;27;20305;-38
2023/07/10 08:34:43;;;;;;;;;;;21.00;99.90;;;;;;5113309;28;19920;-38
2023/07/10 08:37:09;;;;;;;;;;;21.10;99.90;;;;;;5121398;28;20293;-38
2023/07/10 08:39:34;;;;;;;;;;;21.10;99.90;;;;;;5120267;28;20010;-38
2023/07/10 08:42:02;;;;;;;;;;;21.10;99.90;;;;;;5123050;27;19918;-38
2023/07/10 08:44:33;;;;;;;;;;;21.30;99.90;;;;;;5120959;27;20382;-38
2023/07/10 08:47:00;;;;;;;;;;;21.40;99.90;;;;;;5127803;27;19946;-38
2023/07/10 08:49:30;;;;;;;;;;;21.50;99.90;;;;;;5124143;27;19923;-38
2023/07/10 08:52:05;;;;;;;;;;;21.50;99.90;;;;;;5118641;27;19911;-38
2023/07/10 08:54:31;;;;;;;;;;;21.60;99.90;;;;;;5117655;28;20258;-38
2023/07/10 08:56:56;;;;;;;;;;;21.70;99.90;;;;;;5117189;28;19911;-38
2023/07/10 08:59:41;;;;;;;;;;;21.80;99.90;;;;;;5124646;27;19956;-38
2023/07/10 09:02:14;;;;;;;;;;;21.80;99.90;;;;;;5146153;27;19921;-38
2023/07/10 09:04:41;;;;;;;;;;;21.70;99.90;;;;;;5132704;27;19912;-38
2023/07/10 09:07:08;;;;;;;;;;;21.70;99.90;;;;;;5137898;27;19965;-38
2023/07/10 09:09:42;;;;;;;;;;;21.70;99.90;;;;;;5137842;27;20338;-38
2023/07/10 09:12:26;;;;;;;;;;;21.80;99.90;;;;;;5137470;27;19907;-38
2023/07/10 09:14:58;;;;;;;;;;;21.90;99.90;;;;;;5137870;27;20020;-37
2023/07/10 09:17:31;;;;;;;;;;;22.00;99.90;;;;;;5137709;27;19908;-38
2023/07/10 09:19:59;;;;;;;;;;;22.20;99.90;;;;;;5137742;27;19998;-38
2023/07/10 09:22:25;;;;;;;;;;;22.20;99.90;;;;;;5137648;27;19966;-38
2023/07/10 09:24:50;;;;;;;;;;;22.30;99.90;;;;;;5137244;27;19958;-38
2023/07/10 09:27:16;;;;;;;;;;;22.50;99.90;;;;;;5137649;27;19911;-38
2023/07/10 09:29:43;;;;;;;;;;;22.60;99.90;;;;;;5137389;27;19977;-38
2023/07/10 09:32:13;;;;;;;;;;;22.60;99.90;;;;;;5136962;27;19907;-38
2023/07/10 09:34:46;;;;;;;;;;;22.80;99.90;;;;;;5137360;27;19956;-39
2023/07/10 09:37:13;;;;;;;;;;;22.80;99.90;;;;;;5137532;27;19923;-38
2023/07/10 09:39:39;;;;;;;;;;;22.70;99.90;;;;;;5136427;27;20407;-39
2023/07/10 09:42:09;;;;;;;;;;;22.80;99.90;;;;;;5137397;27;20002;-40
2023/07/10 09:44:39;;;;;;;;;;;22.80;99.90;;;;;;5137219;27;19972;-38
2023/07/10 09:47:09;;;;;;;;;;;22.90;99.90;;;;;;5136776;27;19911;-38
2023/07/10 09:49:36;;;;;;;;;;;22.90;99.90;;;;;;5137167;27;19946;-39
2023/07/10 09:52:03;;;;;;;;;;;23.00;99.90;;;;;;5137219;27;19907;-39
2023/07/10 09:54:38;;;;;;;;;;;23.10;99.90;;;;;;5144343;27;19911;-39
2023/07/10 09:57:11;;;;;;;;;;;23.10;99.90;;;;;;5157733;27;19997;-38
2023/07/10 09:59:36;;;;;;;;;;;23.20;99.90;;;;;;5157704;27;19922;-39
2023/07/10 10:02:13;;;;;;;;;;;23.30;99.90;;;;;;5157166;27;19907;-39
2023/07/10 10:04:41;;;;;;;;;;;23.30;99.90;;;;;;5157200;27;19932;-40
2023/07/10 10:07:13;;;;;;;;;;;23.40;99.90;;;;;;5157104;27;20059;-39
2023/07/10 10:09:38;;;;;;;;;;;23.50;99.90;;;;;;5157440;27;20333;-39
2023/07/10 10:12:22;;;;;;;;;;;23.60;99.90;;;;;;5157340;27;19907;-39
2023/07/10 10:15:11;;;;;;;;;;;23.80;99.90;;;;;;5156859;27;19907;-38
2023/07/10 10:17:41;;;;;;;;;;;23.90;99.90;;;;;;5157319;27;20376;-39
2023/07/10 10:20:11;;;;;;;;;;;24.00;99.90;;;;;;5157337;27;20365;-40
2023/07/10 10:22:36;;;;;;;;;;;24.00;99.90;;;;;;5156612;27;20334;-39
2023/07/10 10:25:04;;;;;;;;;;;23.90;99.90;;;;;;5155129;27;20014;-39
2023/07/10 10:27:32;;;;;;;;;;;23.80;99.90;;;;;;5157195;27;19972;-40
2023/07/10 10:30:04;;;;;;;;;;;23.70;99.90;;;;;;5156619;27;19907;-41
2023/07/10 10:32:36;;;;;;;;;;;23.90;99.90;;;;;;5156913;27;19946;-39
2023/07/10 10:35:19;;;;;;;;;;;24.00;99.90;;;;;;5156547;27;19942;-40
2023/07/10 10:37:53;;;;;;;;;;;24.10;99.90;;;;;;5157136;27;19907;-40
2023/07/10 10:40:23;;;;;;;;;;;24.10;99.90;;;;;;5156597;27;20357;-39
2023/07/10 10:42:59;;;;;;;;;;;24.10;99.90;;;;;;5156233;27;19915;-38
2023/07/10 10:45:34;;;;;;;;;;;24.10;99.90;;;;;;5156772;27;19911;-40
2023/07/10 10:48:18;;;;;;;;;;;24.20;99.90;;;;;;5156915;27;20002;-39
2023/07/10 10:50:44;;;;;;;;;;;24.00;99.90;;;;;;5150178;27;19911;-39
2023/07/10 10:53:27;;;;;;;;;;;23.90;99.90;;;;;;5135975;27;19908;-38
2023/07/10 10:55:53;;;;;;;;;;;23.90;99.90;;;;;;5136000;27;19931;-41
2023/07/10 10:58:24;;;;;;;;;;;24.00;99.90;;;;;;5135380;27;20365;-40
2023/07/10 11:01:08;;;;;;;;;;;24.20;99.90;;;;;;5135768;27;19911;-39
2023/07/10 11:03:38;;;;;;;;;;;24.30;99.90;;;;;;5135029;27;19915;-40
2023/07/10 11:06:22;;;;;;;;;;;24.40;99.90;;;;;;5135361;27;19943;-39
2023/07/10 11:08:49;;;;;;;;;;;24.50;99.90;;;;;;5135684;27;20373;-39
2023/07/10 11:11:21;;;;;;;;;;;24.50;99.90;;;;;;5135065;27;20475;-39
2023/07/10 11:13:47;;;;;;;;;;;24.60;99.90;;;;;;5135518;27;19908;-40
2023/07/10 11:16:13;;;;;;;;;;;24.70;99.90;;;;;;5135378;27;19914;-40
2023/07/10 11:18:39;;;;;;;;;;;24.70;99.90;;;;;;5134789;27;20023;-39
2023/07/10 11:21:04;;;;;;;;;;;24.50;99.90;;;;;;5135236;27;19911;-40
2023/07/10 11:23:32;;;;;;;;;;;24.50;99.90;;;;;;5135088;27;20301;-40
2023/07/10 11:26:03;;;;;;;;;;;24.60;99.90;;;;;;5134746;27;20009;-41
2023/07/10 11:28:31;;;;;;;;;;;24.80;99.90;;;;;;5135060;27;20479;-40
2023/07/10 11:31:28;;;;;;;;;;;24.80;99.90;;;;;;5135050;27;19911;-39
2023/07/10 11:34:06;;;;;;;;;;;25.00;99.90;;;;;;5118584;27;19907;-38
2023/07/10 11:36:34;;;;;;;;;;;24.90;99.90;;;;;;5135064;27;19907;-39
2023/07/10 11:39:06;;;;;;;;;;;24.70;99.90;;;;;;5117595;27;19912;-40
2023/07/10 11:41:35;;;;;;;;;;;24.40;99.90;;;;;;5120579;27;20377;-39
2023/07/10 11:44:20;;;;;;;;;;;24.20;99.90;;;;;;5123821;27;20363;-39
2023/07/10 11:46:56;;;;;;;;;;;24.10;99.90;;;;;;5133564;27;20306;-40
2023/07/10 11:49:23;;;;;;;;;;;24.30;99.90;;;;;;5134860;27;19998;-40
2023/07/10 11:52:24;;;;;;;;;;;24.50;99.90;;;;;;5134700;27;19911;-39
2023/07/10 11:55:00;;;;;;;;;;;24.80;99.90;;;;;;5051133;28;19909;-39
2023/07/10 11:57:25;;;;;;;;;;;24.70;99.90;;;;;;5105333;28;20355;-39
2023/07/10 11:59:54;;;;;;;;;;;24.50;99.90;;;;;;5113704;28;19915;-40
2023/07/10 12:02:41;;;;;;;;;;;24.50;99.90;;;;;;5127273;27;19915;-39
2023/07/10 12:05:12;;;;;;;;;;;24.50;99.90;;;;;;5138387;27;20018;-40
2023/07/10 12:07:49;;;;;;;;;;;24.30;99.90;;;;;;5154846;27;19907;-40
2023/07/10 12:10:14;;;;;;;;;;;24.30;99.90;;;;;;5155418;27;19989;-40
2023/07/10 12:12:40;;;;;;;;;;;24.50;99.90;;;;;;5155191;27;19915;-40
2023/07/10 12:15:05;;;;;;;;;;;24.50;99.90;;;;;;5154579;27;19942;-39
2023/07/10 12:17:32;;;;;;;;;;;24.40;99.90;;;;;;5154203;27;19907;-40
2023/07/10 12:19:59;;;;;;;;;;;24.40;99.90;;;;;;5155187;27;20430;-39
2023/07/10 12:22:28;;;;;;;;;;;24.60;99.90;;;;;;5154146;27;19955;-41
2023/07/10 12:24:55;;;;;;;;;;;24.60;99.90;;;;;;5136598;27;20366;-40
2023/07/10 12:27:21;;;;;;;;;;;24.70;99.90;;;;;;5154985;27;19915;-40
2023/07/10 12:29:51;;;;;;;;;;;24.80;99.90;;;;;;5140074;27;19911;-41
2023/07/10 12:32:16;;;;;;;;;;;24.90;99.90;;;;;;5132659;28;19931;-40
2023/07/10 12:34:42;;;;;;;;;;;25.00;99.90;;;;;;5114649;28;19912;-40
2023/07/10 12:37:09;;;;;;;;;;;25.10;99.90;;;;;;5119312;28;19911;-40
2023/07/10 12:39:34;;;;;;;;;;;25.20;99.90;;;;;;5120223;28;20239;-39
2023/07/10 12:42:00;;;;;;;;;;;25.40;99.90;;;;;;5113217;28;19911;-40
2023/07/10 12:44:27;;;;;;;;;;;25.40;99.90;;;;;;5134111;28;19926;-41
2023/07/10 12:47:02;;;;;;;;;;;25.20;99.90;;;;;;5114128;28;19908;-40
2023/07/10 12:49:28;;;;;;;;;;;25.40;99.90;;;;;;5113152;28;19996;-40
2023/07/10 12:51:54;;;;;;;;;;;25.60;99.90;;;;;;5118553;27;19907;-40
2023/07/10 12:54:20;;;;;;;;;;;25.80;99.90;;;;;;5133976;28;19915;-40
2023/07/10 12:56:46;;;;;;;;;;;26.00;99.90;;;;;;5129225;28;20354;-40
2023/07/10 12:59:11;;;;;;;;;;;25.80;99.90;;;;;;5115574;28;19926;-39
2023/07/10 13:01:37;;;;;;;;;;;26.00;99.90;;;;;;5115539;27;19927;-40
2023/07/10 13:04:02;;;;;;;;;;;26.30;99.90;;;;;;5118821;28;19932;-39
2023/07/10 13:06:28;;;;;;;;;;;26.40;99.90;;;;;;5128035;28;19958;-40
2023/07/10 13:08:55;;;;;;;;;;;26.50;99.90;;;;;;5128973;28;19965;-40
2023/07/10 13:11:22;;;;;;;;;;;26.60;99.90;;;;;;5116694;27;19954;-40
2023/07/10 13:13:48;;;;;;;;;;;26.70;99.90;;;;;;5127738;27;19912;-40
2023/07/10 13:16:17;;;;;;;;;;;26.80;99.40;;;;;;5114438;28;19912;-42
2023/07/10 13:18:42;;;;;;;;;;;26.80;99.90;;;;;;5136728;27;19972;-41
2023/07/10 13:21:11;;;;;;;;;;;26.90;99.90;;;;;;5126276;28;20187;-40
2023/07/10 13:23:37;;;;;;;;;;;27.10;99.00;;;;;;5112938;28;19962;-40
2023/07/10 13:26:09;;;;;;;;;;;27.20;99.90;;;;;;5126828;28;19947;-41
2023/07/10 13:28:34;;;;;;;;;;;27.30;98.90;;;;;;5133527;27;19947;-41
2023/07/10 13:31:00;;;;;;;;;;;27.50;99.30;;;;;;5139960;27;19953;-40
2023/07/10 13:33:27;;;;;;;;;;;27.50;96.90;;;;;;5136789;27;19916;-40
2023/07/10 13:35:55;;;;;;;;;;;27.60;98.00;;;;;;5128241;27;19961;-40
2023/07/10 13:38:21;;;;;;;;;;;27.50;94.10;;;;;;5128069;27;19912;-40
2023/07/10 13:40:46;;;;;;;;;;;27.60;99.00;;;;;;5140971;27;19919;-40
2023/07/10 13:43:16;;;;;;;;;;;27.50;99.90;;;;;;5157170;27;19915;-41
2023/07/10 13:45:49;;;;;;;;;;;27.70;97.00;;;;;;5152919;27;19907;-41
2023/07/10 13:48:15;;;;;;;;;;;27.80;97.20;;;;;;5121316;27;19908;-41
2023/07/10 13:50:42;;;;;;;;;;;27.90;96.90;;;;;;5119357;27;19930;-41
2023/07/10 13:53:12;;;;;;;;;;;27.70;95.70;;;;;;5118194;27;20002;-41
2023/07/10 13:55:38;;;;;;;;;;;27.10;98.90;;;;;;5122620;27;19935;-40
2023/07/10 13:58:04;;;;;;;;;;;26.60;99.90;;;;;;5129947;27;19912;-41
2023/07/10 14:00:31;;;;;;;;;;;26.20;97.70;;;;;;5134649;27;19936;-41
2023/07/10 14:02:57;;;;;;;;;;;26.20;99.10;;;;;;5134778;27;19923;-40
2023/07/10 14:05:23;;;;;;;;;;;26.40;98.30;;;;;;5127464;27;19919;-40
2023/07/10 14:07:49;;;;;;;;;;;27.00;98.50;;;;;;5124135;27;19919;-41
2023/07/10 14:10:16;;;;;;;;;;;27.50;98.00;;;;;;5126491;27;19915;-40
2023/07/10 14:12:42;;;;;;;;;;;27.90;94.50;;;;;;5122398;27;19912;-41
2023/07/10 14:15:09;;;;;;;;;;;28.30;99.10;;;;;;5134362;27;20369;-40
2023/07/10 14:17:35;;;;;;;;;;;28.50;99.70;;;;;;5135815;27;19908;-41
2023/07/10 14:20:01;;;;;;;;;;;28.70;96.50;;;;;;5135024;27;19912;-40